EBBL

Kleine Brogel Air Base Airport

Kleine Brogel, Belgium
METAR EBBL 152155Z AUTO 22003KT 9999 NCD 17/15 Q1019 BLU
Observed Flight Rules
Aug-15 @ 21:55 UTC (33 minutes ago) Visual Flight Rules
Wind Visibility Clouds
220° at 3 knots 10,000+ meters
  • Clear skies
Temperatures Readings
Current 17°C / 63°F
Dewpoint 15°C / 59°F
Humidity 88%
Altimeter 30.09" Hg
Pressure 1019 hPa
Elevation 64
METAR EBBL 152155Z AUTO 22003KT 9999 NCD 17/15 Q1019 BLU
Observed Flight Rules
Aug-15 @ 21:55 UTC
(33 minutes ago)
VFR
Wind Visibility
220° at 3 knots 10,000+ meters
Clouds
  • Clear skies
Temperature Dewpoint
17°C / 63°F 15°C / 59°F
Humidity Altimeter Pressure
88% 30.09" Hg 1019 hPa